Time;durP1;ratioP1;P1;durP2;ratioP2;P2;SDS_P1;SDS_P2;PMS_P1;PMS_P2;Temp;Humidity;BMP_temperature;BMP_pressure;BME280_temperature;BME280_humidity;BME280_pressure;Samples;Min_cycle;Max_cycle;Signal;HPM_P1;HPM_P2
2022/10/08 00:01:06;;;;;;;5.93;1.50;;;;;;;11.43;58.41;101312.19;4905095;28;96641;-48
2022/10/08 00:03:34;;;;;;;2.27;1.40;;;;;;;11.41;58.37;101309.16;4908534;28;97694;-50
2022/10/08 00:06:11;;;;;;;3.37;1.20;;;;;;;11.38;58.09;101315.59;4907183;28;97329;-50
2022/10/08 00:08:38;;;;;;;2.60;1.37;;;;;;;11.30;58.27;101315.28;4907259;28;98725;-51
2022/10/08 00:11:07;;;;;;;5.10;1.47;;;;;;;11.27;58.49;101312.72;4905171;28;98564;-51
2022/10/08 00:13:41;;;;;;;7.50;1.87;;;;;;;11.24;58.47;101305.41;4908436;28;96917;-51
2022/10/08 00:16:11;;;;;;;2.60;1.13;;;;;;;11.22;58.36;101310.66;4910010;28;97066;-51
2022/10/08 00:18:38;;;;;;;4.30;1.90;;;;;;;11.19;58.32;101301.34;4907001;28;97541;-50
2022/10/08 00:21:13;;;;;;;4.27;1.67;;;;;;;11.19;58.45;101297.84;4910243;28;99494;-51
2022/10/08 00:23:38;;;;;;;4.10;1.70;;;;;;;11.17;58.21;101314.84;4907403;28;96904;-50
2022/10/08 00:26:05;;;;;;;3.37;1.67;;;;;;;11.14;58.46;101309.53;4908481;28;96725;-50
2022/10/08 00:28:32;;;;;;;8.10;2.37;;;;;;;11.11;58.56;101307.75;4905585;28;97526;-50
2022/10/08 00:30:57;;;;;;;6.77;2.03;;;;;;;11.11;58.68;101300.25;4901853;28;97078;-50
2022/10/08 00:33:22;;;;;;;1.83;1.70;;;;;;;11.11;58.70;101305.75;4910111;28;97353;-50
2022/10/08 00:35:48;;;;;;;4.53;2.40;;;;;;;11.13;58.70;101311.53;4907510;28;97154;-50
2022/10/08 00:38:13;;;;;;;6.20;2.73;;;;;;;11.15;58.83;101302.78;4907341;28;109720;-50
2022/10/08 00:40:43;;;;;;;3.27;2.40;;;;;;;11.17;58.79;101303.06;4910138;28;102199;-50
2022/10/08 00:43:14;;;;;;;6.60;3.10;;;;;;;11.19;58.86;101306.09;4910748;28;96811;-50
2022/10/08 00:45:41;;;;;;;9.63;3.23;;;;;;;11.19;58.71;101303.34;4909514;28;97086;-50
2022/10/08 00:48:11;;;;;;;14.17;4.40;;;;;;;11.20;58.52;101299.38;4909963;28;97366;-48
2022/10/08 00:50:38;;;;;;;6.60;3.87;;;;;;;11.16;58.51;101296.06;4910574;28;97046;-50
2022/10/08 00:53:06;;;;;;;7.87;3.80;;;;;;;11.13;58.48;101286.00;4904821;28;97052;-49
2022/10/08 00:55:34;;;;;;;12.33;3.53;;;;;;;11.09;58.59;101291.72;4905876;28;97232;-49
2022/10/08 00:58:10;;;;;;;9.40;4.30;;;;;;;11.08;58.87;101286.66;4907028;28;98113;-51
2022/10/08 01:00:35;;;;;;;6.97;3.70;;;;;;;11.04;58.71;101292.38;4908076;28;101708;-50
2022/10/08 01:03:02;;;;;;;5.97;3.93;;;;;;;11.04;58.65;101292.38;4907861;28;97203;-50
2022/10/08 01:05:47;;;;;;;10.30;3.77;;;;;;;11.03;59.18;101284.63;4907951;28;96959;-50
2022/10/08 01:08:42;;;;;;;5.57;2.50;;;;;;;11.03;59.28;101281.84;4904533;28;101533;-51
2022/10/08 01:11:30;;;;;;;5.97;2.70;;;;;;;11.02;59.13;101277.56;4905905;28;101707;-50
2022/10/08 01:14:12;;;;;;;4.77;2.00;;;;;;;10.98;58.69;101266.00;4908999;28;96778;-50
2022/10/08 01:16:49;;;;;;;1.90;1.50;;;;;;;11.00;58.99;101274.53;4905960;28;97130;-49
2022/10/08 01:19:53;;;;;;;2.87;1.90;;;;;;;10.96;59.44;101266.50;4907124;28;100783;-51
2022/10/08 01:22:52;;;;;;;6.53;1.50;;;;;;;10.94;59.30;101265.47;4892228;28;101960;-50
2022/10/08 01:25:38;;;;;;;2.90;1.70;;;;;;;10.93;59.40;101263.94;4899476;28;97150;-50
2022/10/08 01:28:08;;;;;;;3.33;1.40;;;;;;;10.93;58.89;101259.19;4902554;28;96812;-51
2022/10/08 01:30:38;;;;;;;7.27;1.53;;;;;;;10.93;58.78;101275.72;4902149;28;97503;-49
2022/10/08 01:33:28;;;;;;;4.50;1.40;;;;;;;10.93;59.60;101266.69;4908325;28;96905;-49
2022/10/08 01:35:56;;;;;;;2.40;1.87;;;;;;;10.90;58.96;101257.38;4906054;28;97259;-50
2022/10/08 01:38:26;;;;;;;4.07;1.47;;;;;;;10.87;58.95;101266.63;4903118;28;96976;-51
2022/10/08 01:40:57;;;;;;;2.90;1.40;;;;;;;10.92;59.07;101262.44;4904080;28;98285;-50
2022/10/08 01:43:27;;;;;;;2.70;1.40;;;;;;;10.93;58.88;101258.44;4906593;28;97349;-50
2022/10/08 01:45:57;;;;;;;2.67;1.20;;;;;;;10.94;59.05;101259.97;4906061;28;97322;-50
2022/10/08 01:48:28;;;;;;;2.00;1.27;;;;;;;10.93;59.14;101256.44;4907537;28;97175;-50
2022/10/08 01:51:19;;;;;;;6.23;1.40;;;;;;;10.91;59.84;101250.66;4909323;28;96967;-50
2022/10/08 01:53:49;;;;;;;2.57;1.53;;;;;;;10.92;59.23;101254.16;4898637;28;101712;-50
2022/10/08 01:56:19;;;;;;;1.20;1.10;;;;;;;10.93;59.14;101259.19;4903210;28;97023;-50
2022/10/08 01:58:54;;;;;;;2.90;1.30;;;;;;;10.91;59.41;101252.66;4903188;28;97382;-50
2022/10/08 02:01:34;;;;;;;2.27;1.60;;;;;;;10.92;59.80;101251.41;4905903;28;103042;-50
2022/10/08 02:06:50;;;;;;;1.47;1.27;;;;;;;10.91;59.38;101247.13;4906325;28;97365;-50
2022/10/08 02:09:15;;;;;;;3.67;1.53;;;;;;;10.89;59.49;101252.38;4904304;28;96994;-51
2022/10/08 02:11:40;;;;;;;2.13;1.30;;;;;;;10.94;59.32;101235.19;4903557;28;97286;-50
2022/10/08 02:14:07;;;;;;;5.23;1.20;;;;;;;10.96;59.31;101233.47;4908996;28;108069;-50
2022/10/08 02:16:35;;;;;;;3.90;1.30;;;;;;;10.97;59.39;101234.19;4905426;28;96935;-50
2022/10/08 02:19:17;;;;;;;4.60;1.27;;;;;;;10.98;59.95;101232.97;4908730;28;97368;-51
2022/10/08 02:21:44;;;;;;;2.67;1.17;;;;;;;10.96;59.56;101229.94;4904354;28;100616;-50
2022/10/08 02:24:19;;;;;;;2.93;1.10;;;;;;;10.98;59.79;101235.72;4904181;28;100204;-49
2022/10/08 02:26:52;;;;;;;1.43;0.93;;;;;;;10.97;59.59;101237.72;4906060;28;97263;-50
2022/10/08 02:29:43;;;;;;;4.73;1.30;;;;;;;10.99;59.59;101234.47;4906721;28;97435;-50
2022/10/08 02:32:17;;;;;;;1.27;1.17;;;;;;;10.98;59.59;101230.22;4907602;28;102429;-50
2022/10/08 02:34:51;;;;;;;4.20;1.37;;;;;;;10.97;59.68;101226.72;4905359;28;97153;-50
2022/10/08 02:37:25;;;;;;;1.30;1.17;;;;;;;10.97;59.82;101231.44;4906893;28;96864;-50
2022/10/08 02:40:05;;;;;;;3.93;1.30;;;;;;;10.97;60.23;101232.22;4905845;28;97039;-50
2022/10/08 02:42:31;;;;;;;3.53;1.30;;;;;;;10.97;59.85;101237.72;4906599;28;102378;-50
2022/10/08 02:45:02;;;;;;;2.20;1.17;;;;;;;10.99;59.79;101238.00;4901040;28;102142;-50
2022/10/08 02:47:31;;;;;;;2.00;1.20;;;;;;;11.02;59.91;101236.28;4905908;28;97353;-50
2022/10/08 02:50:02;;;;;;;2.57;1.30;;;;;;;11.04;59.89;101233.78;4906007;28;97409;-50
2022/10/08 02:52:34;;;;;;;3.00;1.10;;;;;;;11.05;59.86;101233.31;4905017;28;96863;-50
2022/10/08 02:55:01;;;;;;;4.00;1.20;;;;;;;11.06;59.71;101223.81;4907060;28;98572;-49
2022/10/08 02:57:33;;;;;;;4.83;1.37;;;;;;;11.09;60.00;101227.63;4902871;28;97679;-50
2022/10/08 02:59:58;;;;;;;4.10;1.30;;;;;;;11.08;59.90;101218.59;4903928;28;96897;-50
2022/10/08 03:02:35;;;;;;;7.53;1.50;;;;;;;11.09;60.12;101220.13;4909853;28;96931;-51
2022/10/08 03:05:04;;;;;;;1.50;1.20;;;;;;;11.08;60.07;101232.34;4909820;28;98211;-50
2022/10/08 03:07:31;;;;;;;4.27;1.70;;;;;;;11.07;60.00;101227.34;4908446;28;97149;-50
2022/10/08 03:09:59;;;;;;;1.83;0.97;;;;;;;11.11;60.21;101211.38;4909803;28;96878;-50
2022/10/08 03:12:25;;;;;;;3.07;1.30;;;;;;;11.12;60.17;101218.38;4910398;28;98934;-50
2022/10/08 03:14:51;;;;;;;1.27;0.83;;;;;;;11.16;60.07;101235.47;4909318;28;97229;-50
2022/10/08 03:17:24;;;;;;;6.33;0.90;;;;;;;11.19;60.58;101237.25;4907576;28;96854;-50
2022/10/08 03:19:49;;;;;;;4.20;1.37;;;;;;;11.22;60.44;101242.56;4906868;28;97558;-50
2022/10/08 03:22:15;;;;;;;5.07;1.20;;;;;;;11.25;60.33;101227.81;4909093;28;97172;-50
2022/10/08 03:24:40;;;;;;;2.27;1.20;;;;;;;11.27;60.42;101232.81;4908102;28;96903;-50
2022/10/08 03:27:05;;;;;;;1.20;1.07;;;;;;;11.32;60.27;101227.41;4906528;28;97118;-50
2022/10/08 03:29:31;;;;;;;0.70;0.70;;;;;;;11.36;60.20;101235.44;4909921;28;96898;-49
2022/10/08 03:31:56;;;;;;;4.27;1.17;;;;;;;11.37;60.33;101231.47;4908640;28;97321;-50
2022/10/08 03:34:24;;;;;;;4.27;1.20;;;;;;;11.37;60.39;101223.19;4908388;28;112340;-50
2022/10/08 03:36:49;;;;;;;1.37;1.00;;;;;;;11.41;60.30;101232.00;4909526;28;97051;-51
2022/10/08 03:39:14;;;;;;;2.90;1.20;;;;;;;11.42;60.42;101227.25;4908262;28;97313;-50
2022/10/08 03:41:40;;;;;;;3.70;1.10;;;;;;;11.42;60.46;101228.03;4911428;28;97340;-50
2022/10/08 03:44:09;;;;;;;4.07;1.33;;;;;;;11.45;60.45;101234.53;4907684;28;115312;-50
2022/10/08 03:46:35;;;;;;;3.13;1.30;;;;;;;11.47;60.47;101227.31;4907686;28;97364;-50
2022/10/08 03:49:00;;;;;;;2.50;1.43;;;;;;;11.51;60.61;101230.59;4907923;28;97149;-51
2022/10/08 03:51:25;;;;;;;3.27;0.90;;;;;;;11.53;60.68;101230.88;4907681;28;109354;-50
2022/10/08 03:53:50;;;;;;;3.73;1.40;;;;;;;11.59;60.66;101230.94;4904466;28;110705;-49
2022/10/08 03:56:19;;;;;;;6.40;1.50;;;;;;;11.66;60.77;101236.03;4905830;28;101569;-49
2022/10/08 03:58:46;;;;;;;7.47;1.13;;;;;;;11.71;60.88;101230.59;4908946;28;96930;-49
2022/10/08 04:01:14;;;;;;;2.47;1.50;;;;;;;11.79;61.00;101241.97;4907648;28;97863;-50
2022/10/08 04:03:40;;;;;;;2.07;0.90;;;;;;;11.86;60.91;101239.53;4907721;28;97253;-50
2022/10/08 04:06:06;;;;;;;7.10;1.47;;;;;;;11.92;60.94;101234.84;4910365;28;96853;-50
2022/10/08 04:08:32;;;;;;;2.43;1.30;;;;;;;11.95;60.75;101238.59;4909277;28;97920;-50
2022/10/08 04:11:05;;;;;;;6.13;1.40;;;;;;;12.01;60.85;101231.16;4910030;28;96767;-50
2022/10/08 04:13:31;;;;;;;3.43;1.20;;;;;;;12.03;60.96;101234.91;4909477;28;97096;-49
2022/10/08 04:16:01;;;;;;;6.50;1.30;;;;;;;12.14;61.13;101236.28;4903716;28;98895;-50
2022/10/08 04:18:27;;;;;;;2.40;0.90;;;;;;;12.23;61.09;101230.59;4908363;28;99301;-49
2022/10/08 04:20:57;;;;;;;1.23;0.73;;;;;;;12.29;61.10;101234.91;4909333;28;96843;-50
2022/10/08 04:23:22;;;;;;;7.33;1.83;;;;;;;12.37;61.06;101227.69;4907370;28;101845;-49
2022/10/08 04:25:49;;;;;;;6.93;1.53;;;;;;;12.41;60.97;101216.41;4904836;28;97176;-50
2022/10/08 04:28:15;;;;;;;4.40;1.33;;;;;;;12.48;60.99;101224.25;4905202;28;97029;-50
2022/10/08 04:30:40;;;;;;;5.10;1.40;;;;;;;12.55;61.01;101232.84;4908395;28;97785;-49
2022/10/08 04:33:05;;;;;;;3.07;1.50;;;;;;;12.68;60.99;101229.66;4909834;28;97430;-49
2022/10/08 04:35:31;;;;;;;5.40;1.93;;;;;;;12.79;61.20;101233.25;4907958;28;97596;-49
2022/10/08 04:37:56;;;;;;;8.03;1.37;;;;;;;12.89;61.03;101231.03;4904795;28;99527;-49
2022/10/08 04:40:21;;;;;;;8.33;2.13;;;;;;;12.97;61.00;101229.34;4906023;28;107163;-49
2022/10/08 04:42:50;;;;;;;3.03;1.50;;;;;;;13.06;61.12;101223.59;4908496;28;112673;-51
2022/10/08 04:45:16;;;;;;;2.90;1.67;;;;;;;13.14;60.98;101230.19;4908774;28;97374;-49
2022/10/08 04:47:42;;;;;;;4.07;1.43;;;;;;;13.22;60.92;101230.47;4909967;28;96913;-49
2022/10/08 04:50:08;;;;;;;5.17;1.33;;;;;;;13.30;60.97;101226.72;4909566;28;97557;-49
2022/10/08 04:52:33;;;;;;;9.83;1.90;;;;;;;13.37;61.01;101236.53;4909013;28;97638;-49
2022/10/08 04:55:01;;;;;;;5.20;1.60;;;;;;;13.42;60.93;101233.81;4907275;28;96926;-50
2022/10/08 04:57:27;;;;;;;4.03;1.33;;;;;;;13.48;60.75;101237.34;4905413;28;98598;-49
2022/10/08 04:59:52;;;;;;;6.63;1.90;;;;;;;13.52;60.88;101235.09;4906421;28;109506;-49
2022/10/08 05:02:17;;;;;;;5.40;1.63;;;;;;;13.59;60.91;101236.63;4903034;28;104145;-50
2022/10/08 05:04:42;;;;;;;6.00;2.10;;;;;;;13.64;60.97;101238.66;4906492;28;105328;-50
2022/10/08 05:07:08;;;;;;;6.00;2.17;;;;;;;13.69;60.70;101237.91;4907205;28;96745;-50
2022/10/08 05:09:33;;;;;;;6.43;2.13;;;;;;;13.74;60.86;101239.19;4908793;28;98800;-49
2022/10/08 05:11:58;;;;;;;8.10;1.80;;;;;;;13.80;60.84;101251.00;4903612;28;108179;-49
2022/10/08 05:14:24;;;;;;;7.60;1.90;;;;;;;13.83;60.76;101242.47;4909441;28;105928;-49
2022/10/08 05:16:49;;;;;;;3.67;2.10;;;;;;;13.87;60.90;101248.50;4906006;28;96849;-49
2022/10/08 05:19:14;;;;;;;6.37;2.27;;;;;;;13.91;60.85;101253.78;4905777;28;113036;-50
2022/10/08 05:21:39;;;;;;;8.10;1.50;;;;;;;13.95;60.79;101255.06;4905598;28;114332;-49
2022/10/08 05:24:07;;;;;;;6.27;1.77;;;;;;;13.99;60.76;101254.81;4909990;28;97525;-50
2022/10/08 05:26:37;;;;;;;10.60;2.33;;;;;;;14.02;60.78;101259.34;4901501;28;97564;-50
2022/10/08 05:29:03;;;;;;;4.80;1.50;;;;;;;14.06;60.68;101254.31;4906794;28;97410;-50
2022/10/08 05:31:30;;;;;;;3.10;1.73;;;;;;;14.08;60.74;101262.88;4908652;28;97131;-55
2022/10/08 05:33:56;;;;;;;5.97;1.60;;;;;;;14.10;60.86;101261.13;4906571;28;97608;-49
2022/10/08 05:36:24;;;;;;;5.40;1.90;;;;;;;14.16;60.74;101269.41;4907068;28;97070;-49
2022/10/08 05:38:50;;;;;;;12.20;1.53;;;;;;;14.18;60.73;101270.41;4903123;28;97632;-50
2022/10/08 05:41:21;;;;;;;8.03;2.70;;;;;;;14.23;60.81;101274.44;4908015;28;97392;-49
2022/10/08 05:43:46;;;;;;;8.30;1.77;;;;;;;14.26;60.80;101273.47;4905660;28;97180;-50
2022/10/08 05:46:12;;;;;;;4.93;2.00;;;;;;;14.28;60.76;101287.53;4905352;28;97158;-51
2022/10/08 05:48:38;;;;;;;4.90;1.87;;;;;;;14.32;60.82;101290.09;4907529;28;97009;-50
2022/10/08 05:51:09;;;;;;;2.23;1.50;;;;;;;14.34;61.01;101280.03;4905681;28;97300;-50
2022/10/08 05:53:38;;;;;;;5.80;2.23;;;;;;;14.36;60.76;101283.03;4906506;28;97496;-50
2022/10/08 05:56:06;;;;;;;3.37;1.60;;;;;;;14.39;60.71;101293.13;4908128;28;97068;-50
2022/10/08 05:58:34;;;;;;;3.20;1.80;;;;;;;14.40;61.06;101286.31;4905973;28;97267;-50
2022/10/08 06:01:01;;;;;;;9.37;1.93;;;;;;;14.43;60.82;101290.84;4906734;28;97117;-50
2022/10/08 06:03:27;;;;;;;6.13;1.73;;;;;;;14.45;60.85;101285.56;4910559;28;97300;-53
2022/10/08 06:05:54;;;;;;;4.00;2.57;;;;;;;14.48;60.86;101290.06;4908693;28;96895;-49
2022/10/08 06:08:19;;;;;;;4.93;2.40;;;;;;;14.50;60.86;101290.34;4896480;28;97259;-50
2022/10/08 06:10:52;;;;;;;9.53;1.97;;;;;;;14.55;61.02;101284.03;4904894;28;98828;-50
2022/10/08 06:13:18;;;;;;;3.00;1.70;;;;;;;14.56;60.78;101282.03;4903631;28;97252;-51
2022/10/08 06:16:05;;;;;;;4.80;1.90;;;;;;;14.58;61.21;101291.34;4907464;28;97431;-51
2022/10/08 06:18:34;;;;;;;4.40;1.80;;;;;;;14.61;60.61;101295.13;4903512;28;97676;-50
2022/10/08 06:21:05;;;;;;;6.13;1.90;;;;;;;14.64;60.85;101305.19;4905390;28;97858;-50
2022/10/08 06:23:30;;;;;;;4.13;1.80;;;;;;;14.65;60.80;101301.94;4905227;28;96974;-51
2022/10/08 06:26:00;;;;;;;3.60;1.77;;;;;;;14.69;60.89;101305.19;4906364;28;97287;-51
2022/10/08 06:28:25;;;;;;;4.67;2.03;;;;;;;14.74;60.81;101323.06;4904837;28;97479;-50
2022/10/08 06:30:50;;;;;;;2.63;1.83;;;;;;;14.76;60.69;101326.84;4902769;28;118330;-52
2022/10/08 06:33:16;;;;;;;9.67;2.17;;;;;;;14.81;60.94;101325.31;4904445;28;107783;-50
2022/10/08 06:35:41;;;;;;;3.13;1.90;;;;;;;14.84;60.80;101333.38;4906951;28;103272;-50
2022/10/08 06:38:06;;;;;;;9.07;2.27;;;;;;;14.89;60.74;101345.72;4907998;28;115493;-50
2022/10/08 06:40:37;;;;;;;9.73;2.10;;;;;;;14.91;60.64;101340.44;4907983;28;97488;-50
2022/10/08 06:43:06;;;;;;;3.47;2.20;;;;;;;14.93;60.64;101352.50;4905729;28;96828;-50
2022/10/08 06:45:33;;;;;;;4.00;2.27;;;;;;;14.95;60.74;101344.44;4909751;28;97398;-50
2022/10/08 06:47:58;;;;;;;2.47;2.27;;;;;;;14.99;60.64;101344.94;4909320;28;97366;-49
2022/10/08 06:50:23;;;;;;;8.27;2.40;;;;;;;15.01;60.78;101344.44;4910668;28;108312;-50
2022/10/08 06:52:48;;;;;;;8.67;2.33;;;;;;;15.03;60.79;101353.00;4907012;28;97104;-50
2022/10/08 06:55:14;;;;;;;5.90;2.50;;;;;;;15.05;60.79;101353.25;4909484;28;105319;-50
2022/10/08 06:57:39;;;;;;;6.97;2.83;;;;;;;15.07;60.68;101361.06;4910553;28;97390;-50
2022/10/08 07:00:05;;;;;;;5.90;2.47;;;;;;;15.07;60.79;101363.84;4908933;28;97150;-50
2022/10/08 07:02:31;;;;;;;7.00;2.67;;;;;;;15.08;60.90;101368.09;4907924;28;97355;-50
2022/10/08 07:04:56;;;;;;;7.53;2.47;;;;;;;15.07;60.93;101367.34;4907099;28;103146;-50
2022/10/08 07:07:21;;;;;;;5.67;2.40;;;;;;;15.09;60.75;101369.63;4909115;28;106035;-51
2022/10/08 07:09:46;;;;;;;5.37;2.30;;;;;;;15.12;61.00;101376.91;4907150;28;114268;-48
2022/10/08 07:12:12;;;;;;;5.70;2.83;;;;;;;15.12;60.92;101385.22;4907389;28;96896;-49
2022/10/08 07:14:37;;;;;;;6.03;2.40;;;;;;;15.12;60.96;101388.00;4908114;28;96935;-51
2022/10/08 07:17:03;;;;;;;5.50;2.87;;;;;;;15.10;61.09;101390.53;4898235;28;116009;-50
2022/10/08 07:19:28;;;;;;;11.63;2.67;;;;;;;15.11;61.08;101400.38;4923031;28;121414;-51
2022/10/08 07:21:53;;;;;;;8.80;3.20;;;;;;;15.17;61.15;101395.56;4906323;28;103042;-49
2022/10/08 07:24:18;;;;;;;6.00;2.30;;;;;;;15.18;61.22;101402.63;4905536;28;97321;-52
2022/10/08 07:26:44;;;;;;;4.63;2.40;;;;;;;15.19;61.17;101399.34;4910429;28;118576;-49
2022/10/08 07:29:13;;;;;;;6.70;2.77;;;;;;;15.20;61.24;101398.06;4906487;28;107950;-50
2022/10/08 07:31:40;;;;;;;4.43;2.40;;;;;;;15.19;61.31;101406.91;4910206;28;97078;-50
2022/10/08 07:34:14;;;;;;;8.63;2.97;;;;;;;15.20;61.68;101416.75;4908526;28;97306;-50
2022/10/08 07:36:40;;;;;;;4.73;2.60;;;;;;;15.18;61.29;101405.41;4906977;28;97036;-51
2022/10/08 07:39:14;;;;;;;7.63;2.87;;;;;;;15.23;61.58;101421.25;4904515;28;96870;-50
2022/10/08 07:41:39;;;;;;;2.90;2.10;;;;;;;15.29;61.47;101422.03;4908120;28;97190;-51
2022/10/08 07:44:05;;;;;;;4.97;2.50;;;;;;;15.33;61.34;101430.84;4909845;28;97257;-51
2022/10/08 07:46:33;;;;;;;4.83;2.77;;;;;;;15.37;61.30;101425.78;4907892;28;97981;-51
2022/10/08 07:49:00;;;;;;;3.03;2.57;;;;;;;15.44;61.32;101434.34;4906197;28;98413;-52
2022/10/08 07:51:27;;;;;;;6.00;2.50;;;;;;;15.48;61.32;101445.22;4910115;28;96901;-50
2022/10/08 07:53:52;;;;;;;3.90;2.67;;;;;;;15.49;61.31;101452.25;4909263;28;97074;-50
2022/10/08 07:56:19;;;;;;;5.97;2.80;;;;;;;15.50;61.43;101457.31;4906308;28;96856;-50
2022/10/08 07:58:46;;;;;;;5.17;2.37;;;;;;;15.53;61.33;101456.28;4905907;28;97304;-50
2022/10/08 08:01:14;;;;;;;11.00;3.00;;;;;;;15.54;61.33;101466.13;4903799;28;97858;-50
2022/10/08 08:03:39;;;;;;;3.83;3.37;;;;;;;15.59;61.34;101467.38;4908003;28;97066;-50
2022/10/08 08:06:11;;;;;;;2.63;2.33;;;;;;;15.59;61.46;101456.28;4908898;28;97306;-51
2022/10/08 08:08:38;;;;;;;3.03;2.57;;;;;;;15.61;61.30;101473.16;4907458;28;98337;-49
2022/10/08 08:11:06;;;;;;;9.30;2.60;;;;;;;15.66;61.31;101477.97;4904261;28;96920;-50
2022/10/08 08:13:32;;;;;;;4.67;2.10;;;;;;;15.68;61.28;101473.41;4908146;28;97259;-50
2022/10/08 08:16:00;;;;;;;3.87;2.40;;;;;;;15.73;61.23;101478.19;4906323;28;96889;-51
2022/10/08 08:18:30;;;;;;;5.00;2.60;;;;;;;15.77;61.30;101475.13;4907588;28;97871;-50
2022/10/08 08:21:00;;;;;;;7.77;3.03;;;;;;;15.83;61.34;101477.91;4910676;28;99316;-51
2022/10/08 08:23:53;;;;;;;5.77;2.70;;;;;;;15.87;61.69;101481.19;4908085;28;96819;-51
2022/10/08 08:26:23;;;;;;;8.00;2.87;;;;;;;15.96;61.17;101481.66;4905358;28;100561;-48
2022/10/08 08:28:50;;;;;;;14.43;2.60;;;;;;;16.02;61.04;101476.09;4898320;28;98678;-49
2022/10/08 08:31:21;;;;;;;7.60;2.60;;;;;;;16.11;60.96;101484.88;4892821;28;97427;-50
2022/10/08 08:33:49;;;;;;;6.20;2.60;;;;;;;16.20;60.92;101478.28;4908193;28;97557;-51
2022/10/08 08:36:15;;;;;;;4.77;2.37;;;;;;;16.24;60.87;101485.09;4907755;28;97436;-49
2022/10/08 08:38:40;;;;;;;2.70;2.50;;;;;;;16.28;60.75;101496.69;4908833;28;97174;-51
2022/10/08 08:41:21;;;;;;;2.73;2.10;;;;;;;16.30;60.90;101499.69;4907047;28;97304;-50
2022/10/08 08:43:47;;;;;;;4.67;1.83;;;;;;;16.36;60.78;101494.09;4898747;28;98330;-53
2022/10/08 08:46:16;;;;;;;3.67;2.70;;;;;;;16.39;60.63;101504.22;4906093;28;97504;-50
2022/10/08 08:48:43;;;;;;;3.50;1.87;;;;;;;16.41;60.55;101508.00;4904195;28;97442;-48
2022/10/08 08:51:09;;;;;;;2.77;1.80;;;;;;;16.47;60.45;101511.50;4906197;28;96901;-51
2022/10/08 08:53:35;;;;;;;6.53;2.13;;;;;;;16.57;60.53;101500.09;4909675;28;97257;-51
2022/10/08 08:56:04;;;;;;;2.30;1.80;;;;;;;16.61;60.37;101517.25;4903381;28;102338;-49
2022/10/08 08:58:40;;;;;;;3.90;2.37;;;;;;;16.65;60.44;101509.41;4907343;28;97999;-53
2022/10/08 09:01:09;;;;;;;2.87;2.00;;;;;;;16.68;60.29;101511.94;4907833;28;97245;-50
2022/10/08 09:03:40;;;;;;;2.80;2.17;;;;;;;16.76;60.21;101514.91;4910489;28;97566;-56
2022/10/08 09:06:13;;;;;;;6.30;1.43;;;;;;;16.82;60.12;101519.16;4904653;28;97616;-50
2022/10/08 09:08:46;;;;;;;3.63;1.20;;;;;;;16.94;60.08;101531.72;4905501;28;102931;-50
2022/10/08 09:11:14;;;;;;;2.70;1.60;;;;;;;17.05;60.01;101530.91;4905816;28;97232;-50
2022/10/08 09:13:46;;;;;;;3.27;1.80;;;;;;;17.10;59.79;101533.63;4905338;28;97085;-50
2022/10/08 09:16:13;;;;;;;2.30;1.67;;;;;;;17.11;59.69;101528.81;4906479;28;102042;-50
2022/10/08 09:18:41;;;;;;;4.70;2.37;;;;;;;17.08;59.82;101536.16;4909418;28;96749;-49
2022/10/08 09:21:06;;;;;;;2.80;1.70;;;;;;;17.08;59.85;101538.22;4906289;28;97084;-50
2022/10/08 09:23:32;;;;;;;2.47;1.93;;;;;;;17.06;59.92;101533.16;4906573;28;97433;-50
2022/10/08 09:26:02;;;;;;;4.27;1.53;;;;;;;17.08;59.75;101535.44;4903544;28;97456;-50
2022/10/08 09:28:45;;;;;;;2.43;1.77;;;;;;;17.10;59.58;101544.00;4906163;28;98954;-50
2022/10/08 09:31:24;;;;;;;2.20;1.57;;;;;;;17.08;59.72;101541.00;4905179;28;96781;-50
2022/10/08 09:33:57;;;;;;;4.17;1.80;;;;;;;17.09;59.57;101542.50;4899016;28;97250;-50
2022/10/08 09:36:40;;;;;;;3.67;1.90;;;;;;;17.12;59.57;101539.41;4901680;28;97339;-50
2022/10/08 09:39:16;;;;;;;4.50;1.37;;;;;;;17.11;59.74;101551.06;4907670;28;102825;-51
2022/10/08 09:41:43;;;;;;;7.53;1.70;;;;;;;17.14;59.54;101555.59;4904925;28;97180;-50
2022/10/08 09:44:21;;;;;;;1.60;1.50;;;;;;;17.18;59.68;101550.53;4907189;28;97273;-50
2022/10/08 09:46:48;;;;;;;4.10;1.60;;;;;;;17.21;59.50;101549.50;4905758;28;102391;-48
2022/10/08 09:49:33;;;;;;;5.60;2.20;;;;;;;17.24;59.45;101554.78;4907405;28;96974;-50
2022/10/08 09:52:22;;;;;;;4.67;1.80;;;;;;;17.25;59.33;101564.59;4904004;28;96695;-50
2022/10/08 09:54:56;;;;;;;3.43;1.70;;;;;;;17.24;59.40;101559.56;4906752;28;97345;-50
2022/10/08 09:57:22;;;;;;;5.03;2.20;;;;;;;17.23;59.34;101561.59;4902009;28;104805;-50
2022/10/08 09:59:53;;;;;;;5.27;1.90;;;;;;;17.25;59.37;101569.44;4909327;28;96914;-51
2022/10/08 10:02:39;;;;;;;5.73;1.90;;;;;;;17.31;59.55;101566.59;4906783;28;96992;-50
2022/10/08 10:05:16;;;;;;;8.83;2.63;;;;;;;17.43;59.47;101566.00;4906177;28;97305;-50
2022/10/08 10:07:44;;;;;;;2.33;1.60;;;;;;;17.56;59.26;101565.44;4901802;28;97249;-51
2022/10/08 10:10:31;;;;;;;4.30;2.27;;;;;;;17.66;58.85;101566.59;4908807;28;98286;-50
2022/10/08 10:13:08;;;;;;;6.17;2.33;;;;;;;17.74;58.83;101568.28;4902683;28;97265;-51
2022/10/08 10:15:39;;;;;;;2.27;1.70;;;;;;;17.81;58.88;101561.41;4905485;28;97119;-50
2022/10/08 10:18:11;;;;;;;2.53;1.60;;;;;;;17.86;58.72;101572.50;4905603;28;101805;-50
2022/10/08 10:20:42;;;;;;;2.17;1.23;;;;;;;17.94;58.46;101581.78;4905816;28;101718;-51
2022/10/08 10:23:39;;;;;;;2.83;1.50;;;;;;;18.03;58.01;101566.00;4909754;28;96923;-49
2022/10/08 10:26:15;;;;;;;5.67;1.80;;;;;;;18.10;58.29;101562.63;4905783;28;98132;-51
2022/10/08 10:28:51;;;;;;;7.27;1.90;;;;;;;18.17;58.23;101568.38;4904959;28;97935;-50
2022/10/08 10:31:23;;;;;;;4.87;1.53;;;;;;;18.28;58.00;101565.44;4904133;28;100426;-50
2022/10/08 10:34:03;;;;;;;4.20;1.60;;;;;;;18.44;58.09;101560.97;4905029;28;97433;-51
2022/10/08 10:36:33;;;;;;;2.93;1.17;;;;;;;18.56;57.59;101563.13;4905140;28;96812;-51
2022/10/08 10:39:26;;;;;;;4.80;1.27;;;;;;;18.58;56.63;101554.25;4905636;28;99066;-51
2022/10/08 10:42:02;;;;;;;4.83;1.57;;;;;;;18.48;56.65;101555.88;4902406;28;98286;-50
2022/10/08 10:44:41;;;;;;;4.70;1.10;;;;;;;18.36;56.51;101557.28;4906890;28;96754;-50
2022/10/08 10:47:08;;;;;;;3.40;1.60;;;;;;;18.27;57.04;101558.38;4893325;28;97073;-50
2022/10/08 10:49:39;;;;;;;1.70;1.13;;;;;;;18.24;57.00;101558.69;4904073;28;98095;-50
2022/10/08 10:52:38;;;;;;;3.83;1.10;;;;;;;18.24;56.12;101561.47;4904431;28;100289;-51
2022/10/08 10:55:11;;;;;;;3.90;1.30;;;;;;;18.30;56.42;101565.72;4907648;28;96775;-51
2022/10/08 10:58:01;;;;;;;4.33;1.60;;;;;;;18.42;56.57;101564.28;4902165;28;97673;-50
2022/10/08 11:01:14;;;;;;;1.77;1.07;;;;;;;18.70;56.05;101572.31;4906922;28;100378;-51
2022/10/08 11:03:49;;;;;;;1.10;0.80;;;;;;;18.78;54.92;101614.31;4874975;28;101621;-51
2022/10/08 11:06:39;;;;;;;3.70;0.77;;;;;;;18.47;55.51;101626.84;4904476;28;96903;-52
2022/10/08 11:09:04;;;;;;;4.40;0.80;;;;;;;17.95;56.50;101615.94;4905807;28;96664;-52
2022/10/08 11:11:42;;;;;;;1.67;0.60;;;;;;;17.50;56.96;101606.41;4902900;28;97194;-53
2022/10/08 11:14:49;;;;;;;2.50;0.60;;;;;;;17.15;57.40;101604.38;4906134;28;97322;-52
2022/10/08 11:17:36;;;;;;;3.00;0.57;;;;;;;17.00;58.17;101603.97;4887476;28;97178;-52
2022/10/08 11:20:38;;;;;;;5.10;0.93;;;;;;;16.81;58.71;101601.03;4903100;28;96936;-52
2022/10/08 11:23:39;;;;;;;1.23;0.50;;;;;;;16.69;59.06;101607.91;4908272;28;100458;-51
2022/10/08 11:26:27;;;;;;;0.93;0.50;;;;;;;16.63;58.96;101612.72;4906001;28;101740;-51
2022/10/08 11:29:22;;;;;;;2.00;0.87;;;;;;;16.55;59.15;101616.56;4901744;28;96867;-51
2022/10/08 11:31:50;;;;;;;0.90;0.60;;;;;;;16.49;58.96;101617.28;4910331;28;97227;-51
2022/10/08 11:34:37;;;;;;;1.90;0.60;;;;;;;16.43;59.04;101622.13;4902437;28;98524;-49
2022/10/08 11:37:33;;;;;;;1.47;0.80;;;;;;;16.36;59.22;101616.31;4905419;28;97347;-50
2022/10/08 11:40:34;;;;;;;2.43;0.60;;;;;;;16.29;59.26;101609.25;4911524;28;96661;-52
2022/10/08 11:43:12;;;;;;;1.97;0.73;;;;;;;16.29;59.41;101630.75;4898582;28;97345;-51
2022/10/08 11:45:39;;;;;;;2.30;0.80;;;;;;;16.31;59.15;101606.00;4907474;28;96773;-51